East Somerville, Massachusetts
Current Conditions -  °F | °C
As of 8:54 AM on Sunday 25 Jan 2015 (Local Time) from KBOS Reporting Station
Broken Clouds Broken Clouds  
Wind Chill: 24°   Ceiling: 6000
Heat Index: 34°   Visibility: 10mi
Dew Point: 27°   Wind: 16mph
Humidity: 75%   Direction: 240°WSW
Pressure: 29.55"   Gusts: NA
Location:  42.3814°N, 71.0971°W
Report Text: KBOS 251354Z 24014KT 10SM FEW045 BKN060 01/M03 A2955 RMK AO2 SLP004 VIRGA SE T00111028
Loading
Personal Weather Stations






























Interactive Weather Map New forecast layout! Learn more

10-Day Weather Forecast

Advertisements
Track Severe Weather on mobile